Time;durP1;ratioP1;P1;durP2;ratioP2;P2;SDS_P1;SDS_P2;PMS_P1;PMS_P2;Temp;Humidity;BMP_temperature;BMP_pressure;BME280_temperature;BME280_humidity;BME280_pressure;Samples;Min_cycle;Max_cycle;Signal;HPM_P1;HPM_P2
2022/09/23 00:02:47;;;;;;;2.58;1.95;;;;;;;8.46;100.00;100319.25;6324348;28;20406;-74
2022/09/23 00:06:06;;;;;;;3.33;2.00;;;;;;;8.42;100.00;100316.84;6322531;28;20036;-73
2022/09/23 00:09:09;;;;;;;3.30;2.20;;;;;;;8.40;100.00;100311.69;6324352;28;20471;-74
2022/09/23 00:12:10;;;;;;;2.35;1.67;;;;;;;8.34;100.00;100308.53;6339990;28;20086;-74
2022/09/23 00:15:11;;;;;;;3.03;2.03;;;;;;;8.28;100.00;100302.72;6322969;28;20043;-74
2022/09/23 00:18:11;;;;;;;3.60;1.98;;;;;;;8.28;100.00;100313.13;6322775;28;20044;-74
2022/09/23 00:21:17;;;;;;;3.35;1.67;;;;;;;8.27;100.00;100314.03;6324366;28;20036;-74
2022/09/23 00:24:22;;;;;;;2.75;1.70;;;;;;;8.27;100.00;100315.78;6305766;28;20072;-74
2022/09/23 00:27:23;;;;;;;1.48;1.33;;;;;;;8.21;100.00;100309.09;6322631;28;20411;-74
2022/09/23 00:30:24;;;;;;;1.67;1.58;;;;;;;8.22;100.00;100309.97;6322699;28;20047;-73
2022/09/23 00:33:25;;;;;;;1.77;1.20;;;;;;;8.18;100.00;100303.25;6323748;28;20047;-74
2022/09/23 00:36:28;;;;;;;2.30;1.63;;;;;;;8.20;100.00;100307.44;6322347;28;20128;-73
2022/09/23 00:39:29;;;;;;;1.73;1.50;;;;;;;8.17;100.00;100299.78;6322395;28;20055;-73
2022/09/23 00:42:30;;;;;;;2.58;1.63;;;;;;;8.15;100.00;100296.41;6323451;28;20443;-73
2022/09/23 00:45:31;;;;;;;1.90;1.55;;;;;;;8.18;100.00;100298.88;6323084;28;20185;-74
2022/09/23 00:48:34;;;;;;;3.00;1.50;;;;;;;8.08;100.00;100301.06;6323590;28;20086;-73
2022/09/23 00:51:43;;;;;;;2.42;1.80;;;;;;;8.06;100.00;100299.44;6355975;27;20527;-73
2022/09/23 00:54:46;;;;;;;1.60;1.50;;;;;;;8.05;100.00;100300.34;6323234;28;20072;-74
2022/09/23 00:57:47;;;;;;;2.72;1.80;;;;;;;8.07;100.00;100294.19;6321844;28;20442;-74
2022/09/23 01:00:48;;;;;;;2.28;1.85;;;;;;;8.07;100.00;100295.91;6323071;28;20036;-74
2022/09/23 01:03:50;;;;;;;2.85;1.73;;;;;;;8.07;100.00;100301.97;6322883;28;20073;-74
2022/09/23 01:06:50;;;;;;;2.65;2.10;;;;;;;8.18;100.00;100296.28;6321500;28;20039;-73
2022/09/23 01:09:51;;;;;;;2.72;1.83;;;;;;;8.13;100.00;100303.44;6322873;28;20105;-73
2022/09/23 01:12:55;;;;;;;3.15;1.95;;;;;;;8.28;100.00;100302.72;6322731;28;20040;-74
2022/09/23 01:16:07;;;;;;;3.47;1.92;;;;;;;8.32;100.00;100294.75;6321522;28;20062;-73
2022/09/23 01:19:11;;;;;;;2.72;1.73;;;;;;;8.40;100.00;100313.44;6321728;28;20040;-74
2022/09/23 01:22:35;;;;;;;3.10;1.88;;;;;;;8.45;100.00;100301.09;6322553;28;20040;-74
2022/09/23 01:26:07;;;;;;;2.38;1.75;;;;;;;8.48;100.00;100298.34;6322393;28;20040;-73
2022/09/23 01:29:44;;;;;;;3.10;1.95;;;;;;;8.52;100.00;100302.47;6321093;28;20036;-74
2022/09/23 01:33:17;;;;;;;2.20;1.67;;;;;;;8.47;100.00;100294.91;6304145;28;20067;-73
2022/09/23 01:36:22;;;;;;;2.75;1.75;;;;;;;8.45;100.00;100296.75;6320997;28;20069;-74
2022/09/23 01:39:34;;;;;;;3.95;1.92;;;;;;;8.45;100.00;100294.13;6320983;28;20036;-74
2022/09/23 01:42:46;;;;;;;1.63;1.40;;;;;;;8.43;100.00;100298.56;6322097;28;20098;-74
2022/09/23 01:45:53;;;;;;;2.80;1.60;;;;;;;8.41;100.00;100295.19;6303637;28;20489;-73
2022/09/23 01:49:08;;;;;;;2.55;1.80;;;;;;;8.40;100.00;100293.50;6322037;28;20418;-74
2022/09/23 01:52:47;;;;;;;3.53;1.92;;;;;;;8.50;100.00;100299.09;6321811;28;20061;-73
2022/09/23 01:55:55;;;;;;;2.08;1.25;;;;;;;8.49;100.00;100302.63;6318428;28;20048;-74
2022/09/23 01:59:16;;;;;;;3.63;1.88;;;;;;;8.45;100.00;100294.13;6321571;28;20102;-74
2022/09/23 02:02:34;;;;;;;2.72;1.70;;;;;;;8.46;100.00;100298.44;6320562;28;20431;-74
2022/09/23 02:05:49;;;;;;;2.55;1.40;;;;;;;8.44;100.00;100304.59;6304143;28;20067;-73
2022/09/23 02:09:10;;;;;;;3.35;2.20;;;;;;;8.49;100.00;100301.81;6320416;28;20040;-74
2022/09/23 02:12:16;;;;;;;2.20;1.35;;;;;;;8.46;100.00;100295.84;6321590;28;20411;-73
2022/09/23 02:15:22;;;;;;;2.65;2.03;;;;;;;8.51;100.00;100303.41;6320258;28;20560;-73
2022/09/23 02:18:28;;;;;;;4.25;1.65;;;;;;;8.52;100.00;100301.66;6321290;28;20070;-73
2022/09/23 02:21:35;;;;;;;2.70;1.92;;;;;;;8.45;100.00;100301.09;6321312;28;20206;-73
2022/09/23 02:24:38;;;;;;;1.48;1.38;;;;;;;8.57;100.00;100295.31;6320103;28;20044;-73
2022/09/23 02:27:39;;;;;;;2.22;1.20;;;;;;;8.61;100.00;100293.41;6321067;28;20036;-73
2022/09/23 02:31:00;;;;;;;2.65;2.00;;;;;;;8.65;100.00;100287.97;6321279;28;20059;-73
2022/09/23 02:34:35;;;;;;;2.53;1.70;;;;;;;8.64;100.00;100288.03;6320118;28;20135;-74
2022/09/23 02:37:46;;;;;;;2.55;1.83;;;;;;;8.71;100.00;100289.44;6321073;28;20040;-74
2022/09/23 02:40:59;;;;;;;2.25;1.77;;;;;;;8.71;100.00;100291.19;6319884;28;20086;-75
2022/09/23 02:44:11;;;;;;;2.35;1.60;;;;;;;8.64;100.00;100281.06;6321007;28;20134;-74
2022/09/23 02:47:17;;;;;;;1.25;1.08;;;;;;;8.71;100.00;100278.16;6319763;28;20074;-73
2022/09/23 02:50:18;;;;;;;2.95;1.70;;;;;;;8.73;100.00;100285.00;6319803;28;20044;-73
2022/09/23 02:53:21;;;;;;;6.03;2.15;;;;;;;8.70;100.00;100286.91;6319811;28;20047;-73
2022/09/23 02:56:22;;;;;;;3.92;2.13;;;;;;;8.68;100.00;100281.78;6319716;28;20044;-73
2022/09/23 02:59:23;;;;;;;1.85;1.45;;;;;;;8.63;100.00;100287.22;6319537;28;20043;-73
2022/09/23 03:02:35;;;;;;;2.72;1.42;;;;;;;8.61;100.00;100281.22;6320908;28;20392;-73
2022/09/23 03:05:49;;;;;;;2.03;1.60;;;;;;;8.62;100.00;100290.72;6320735;28;20373;-73
2022/09/23 03:09:00;;;;;;;3.42;1.80;;;;;;;8.63;100.00;100295.00;6302547;28;20541;-73
2022/09/23 03:12:15;;;;;;;2.78;1.92;;;;;;;8.62;100.00;100295.91;6320623;28;20119;-73
2022/09/23 03:15:36;;;;;;;2.53;1.73;;;;;;;8.60;100.00;100287.34;6320741;28;20048;-74
2022/09/23 03:18:44;;;;;;;4.70;1.70;;;;;;;8.59;100.00;100298.69;6320625;28;20476;-73
2022/09/23 03:22:17;;;;;;;2.67;1.80;;;;;;;8.57;100.00;100290.09;6320618;28;20511;-73
2022/09/23 03:25:24;;;;;;;3.03;1.77;;;;;;;8.58;100.00;100294.38;6318730;28;20052;-73
2022/09/23 03:28:27;;;;;;;4.88;2.10;;;;;;;8.55;100.00;100291.09;6320415;28;20043;-73
2022/09/23 03:31:31;;;;;;;2.67;1.92;;;;;;;8.58;100.00;100296.16;6319381;28;20036;-73
2022/09/23 03:34:34;;;;;;;2.60;1.85;;;;;;;8.59;100.00;100288.28;6319195;28;20071;-73
2022/09/23 03:37:43;;;;;;;2.88;2.00;;;;;;;8.58;100.00;100290.94;6320437;28;20101;-73
2022/09/23 03:40:49;;;;;;;2.78;1.60;;;;;;;8.36;100.00;100284.16;6321320;28;20044;-73
2022/09/23 03:43:52;;;;;;;2.25;1.58;;;;;;;8.35;100.00;100286.81;6324622;28;20499;-73
2022/09/23 03:46:53;;;;;;;2.22;1.70;;;;;;;8.45;100.00;100298.50;6323587;28;20056;-73
2022/09/23 03:49:57;;;;;;;2.95;1.58;;;;;;;8.48;100.00;100295.75;6323591;28;20067;-73
2022/09/23 03:52:58;;;;;;;2.83;1.48;;;;;;;8.46;100.00;100290.63;6323458;28;20380;-73
2022/09/23 03:55:58;;;;;;;3.17;1.83;;;;;;;8.44;100.00;100297.66;6323484;28;20043;-73
2022/09/23 03:58:59;;;;;;;7.00;1.55;;;;;;;8.40;100.00;100303.91;6324507;28;20036;-74
2022/09/23 04:02:01;;;;;;;3.33;2.20;;;;;;;8.41;100.00;100296.97;6324473;28;20096;-73
2022/09/23 04:05:02;;;;;;;2.43;1.83;;;;;;;8.46;100.00;100294.97;6323239;28;20040;-73
2022/09/23 04:08:05;;;;;;;3.35;2.20;;;;;;;8.44;100.00;100295.06;6323060;28;20041;-73
2022/09/23 04:11:06;;;;;;;1.48;1.35;;;;;;;8.43;100.00;100282.97;6324278;28;20058;-73
2022/09/23 04:14:07;;;;;;;2.55;1.50;;;;;;;8.47;100.00;100292.31;6323032;28;20862;-73
2022/09/23 04:17:11;;;;;;;6.40;1.48;;;;;;;8.47;100.00;100294.91;6323116;28;20071;-74
2022/09/23 04:20:15;;;;;;;2.45;1.58;;;;;;;8.49;100.00;100299.22;6323944;28;20040;-73
2022/09/23 04:23:16;;;;;;;2.28;1.80;;;;;;;8.43;100.00;100306.38;6323990;28;20040;-72
2022/09/23 04:26:17;;;;;;;1.65;1.30;;;;;;;8.45;100.00;100303.69;6322452;28;20075;-73
2022/09/23 04:29:21;;;;;;;2.22;1.70;;;;;;;8.45;100.00;100314.94;6324060;28;20048;-74
2022/09/23 04:32:24;;;;;;;3.42;2.10;;;;;;;8.50;100.00;100313.88;6322624;28;20040;-75
2022/09/23 04:35:25;;;;;;;2.78;1.95;;;;;;;8.53;100.00;100311.97;6323665;28;20068;-75
2022/09/23 04:38:26;;;;;;;2.53;1.73;;;;;;;8.58;100.00;100315.19;6322472;28;20043;-75
2022/09/23 04:41:27;;;;;;;2.40;1.85;;;;;;;8.61;100.00;100317.66;6356296;27;20052;-75
2022/09/23 04:44:28;;;;;;;5.85;2.30;;;;;;;8.68;100.00;100323.38;6323263;28;20051;-75
2022/09/23 04:47:31;;;;;;;3.80;2.40;;;;;;;8.71;100.00;100320.66;6322150;28;20040;-75
2022/09/23 04:50:32;;;;;;;2.80;1.95;;;;;;;8.73;100.00;100312.75;6322182;28;20036;-75
2022/09/23 04:53:38;;;;;;;2.38;2.05;;;;;;;8.82;100.00;100317.53;6322037;28;20404;-75
2022/09/23 04:56:39;;;;;;;3.47;2.00;;;;;;;8.84;100.00;100318.28;6322027;28;20040;-75
2022/09/23 04:59:40;;;;;;;5.90;1.92;;;;;;;8.83;100.00;100325.25;6321748;28;20036;-74
2022/09/23 05:02:43;;;;;;;5.90;2.30;;;;;;;8.88;100.00;100327.63;6304812;28;20131;-75
2022/09/23 05:05:44;;;;;;;3.05;2.10;;;;;;;8.88;100.00;100332.81;6321740;28;20044;-75
2022/09/23 05:08:52;;;;;;;3.53;2.20;;;;;;;8.90;100.00;100330.16;6322692;28;20040;-74
2022/09/23 05:11:53;;;;;;;3.03;1.90;;;;;;;8.95;100.00;100335.97;6355440;27;20316;-74
2022/09/23 05:14:53;;;;;;;6.00;2.80;;;;;;;8.99;100.00;100333.13;6321218;28;20054;-73
2022/09/23 05:17:58;;;;;;;6.47;2.67;;;;;;;9.05;100.00;100338.03;6321456;28;20407;-73
2022/09/23 05:20:59;;;;;;;2.58;2.08;;;;;;;9.10;100.00;100337.81;6355494;27;20501;-72
2022/09/23 05:23:59;;;;;;;3.72;2.42;;;;;;;9.17;100.00;100336.56;6321377;28;20093;-72
2022/09/23 05:27:00;;;;;;;3.83;2.30;;;;;;;9.19;100.00;100337.34;6304116;28;20044;-73
2022/09/23 05:30:01;;;;;;;4.25;2.25;;;;;;;9.23;100.00;100341.47;6321216;28;20049;-73
2022/09/23 05:33:02;;;;;;;3.70;2.08;;;;;;;9.26;100.00;100345.66;6321115;28;20115;-73
2022/09/23 05:36:05;;;;;;;3.45;2.28;;;;;;;9.35;100.00;100353.03;6322223;28;20044;-76
2022/09/23 05:39:06;;;;;;;3.45;2.20;;;;;;;9.37;100.00;100353.78;6321923;28;20048;-76
2022/09/23 05:42:08;;;;;;;3.10;1.92;;;;;;;9.42;100.00;100353.53;6320419;28;20495;-75
2022/09/23 05:45:08;;;;;;;4.22;2.60;;;;;;;9.51;100.00;100344.41;6303548;28;20055;-75
2022/09/23 05:48:09;;;;;;;3.72;2.15;;;;;;;9.63;100.00;100349.81;6320649;28;20097;-75
2022/09/23 05:51:17;;;;;;;3.60;1.98;;;;;;;9.69;100.00;100353.88;6320557;28;20092;-74
2022/09/23 05:54:18;;;;;;;3.33;1.75;;;;;;;9.80;100.00;100351.56;6320602;28;20048;-75
2022/09/23 05:57:19;;;;;;;3.30;2.15;;;;;;;9.87;100.00;100346.84;6320591;28;20113;-74
2022/09/23 06:00:20;;;;;;;4.25;1.98;;;;;;;9.83;100.00;100348.78;6321608;28;20483;-75
2022/09/23 06:03:22;;;;;;;3.33;1.60;;;;;;;9.93;100.00;100351.75;6319807;28;20052;-74
2022/09/23 06:06:30;;;;;;;2.92;1.63;;;;;;;9.99;100.00;100354.03;6321478;28;20093;-75
2022/09/23 06:09:33;;;;;;;2.25;2.05;;;;;;;10.13;100.00;100348.06;6320161;28;20492;-74
2022/09/23 06:12:34;;;;;;;1.77;1.58;;;;;;;10.22;100.00;100349.31;6337148;28;20048;-75
2022/09/23 06:15:36;;;;;;;1.97;1.53;;;;;;;10.38;100.00;100349.34;6321446;28;20047;-75
2022/09/23 06:18:39;;;;;;;2.13;1.80;;;;;;;10.48;100.00;100355.75;6321293;28;20453;-75
2022/09/23 06:21:42;;;;;;;3.95;2.00;;;;;;;10.60;100.00;100349.81;6319993;28;20399;-75
2022/09/23 06:24:45;;;;;;;2.85;2.08;;;;;;;10.66;100.00;100351.25;6319943;28;20043;-75
2022/09/23 06:27:55;;;;;;;3.55;1.98;;;;;;;10.78;100.00;100352.31;6321014;28;20063;-76
2022/09/23 06:30:58;;;;;;;2.90;1.95;;;;;;;10.87;100.00;100349.16;6319816;28;20040;-75
2022/09/23 06:34:00;;;;;;;2.85;1.52;;;;;;;10.86;100.00;100348.34;6319939;28;20105;-75
2022/09/23 06:37:01;;;;;;;3.42;2.25;;;;;;;11.04;100.00;100353.44;6353762;27;20077;-75
2022/09/23 06:40:02;;;;;;;2.58;1.63;;;;;;;11.15;100.00;100355.41;6320844;28;20044;-75
2022/09/23 06:43:05;;;;;;;2.95;1.98;;;;;;;11.26;100.00;100355.63;6319580;28;20208;-74
2022/09/23 06:46:08;;;;;;;2.58;1.98;;;;;;;11.22;100.00;100357.59;6302865;28;20138;-75
2022/09/23 06:49:09;;;;;;;3.17;1.88;;;;;;;11.31;100.00;100364.03;6320894;28;20042;-75
2022/09/23 06:52:10;;;;;;;2.47;1.67;;;;;;;11.20;100.00;100369.91;6353545;28;20048;-75
2022/09/23 06:55:13;;;;;;;3.33;2.20;;;;;;;11.27;100.00;100371.19;6319615;28;20090;-75
2022/09/23 06:58:14;;;;;;;3.08;1.95;;;;;;;11.45;100.00;100373.69;6319609;28;20051;-75
2022/09/23 07:01:16;;;;;;;2.75;1.65;;;;;;;11.60;100.00;100377.97;6320721;28;20546;-74
2022/09/23 07:04:16;;;;;;;2.20;1.70;;;;;;;11.73;98.91;100383.28;6319474;28;20052;-74
2022/09/23 07:07:17;;;;;;;3.28;1.80;;;;;;;12.12;93.48;100378.38;6320607;28;20048;-75
2022/09/23 07:10:18;;;;;;;2.58;1.95;;;;;;;12.26;89.21;100368.72;6319406;28;20435;-74
2022/09/23 07:13:23;;;;;;;3.50;1.98;;;;;;;12.43;89.00;100372.88;6320640;28;20526;-74
2022/09/23 07:16:24;;;;;;;3.70;2.42;;;;;;;12.21;90.71;100372.53;6321559;28;20048;-75
2022/09/23 07:19:25;;;;;;;3.28;2.38;;;;;;;12.22;87.42;100362.00;6325345;28;20123;-76
2022/09/23 07:22:26;;;;;;;4.40;1.63;;;;;;;12.34;86.02;100373.47;6324172;28;20040;-75
2022/09/23 07:25:28;;;;;;;2.10;1.58;;;;;;;12.70;85.92;100383.38;6325248;28;20044;-75
2022/09/23 07:28:28;;;;;;;2.00;1.35;;;;;;;13.05;81.85;100382.00;6307040;28;20075;-74
2022/09/23 07:31:31;;;;;;;1.83;1.30;;;;;;;13.33;82.78;100380.19;6340845;28;20047;-75
2022/09/23 07:34:32;;;;;;;2.30;1.70;;;;;;;13.62;79.57;100378.22;6357848;27;20070;-74
2022/09/23 07:37:33;;;;;;;1.83;1.27;;;;;;;13.32;77.42;100379.34;6325019;28;20068;-75
2022/09/23 07:40:34;;;;;;;3.38;2.55;;;;;;;13.75;78.44;100368.53;6323494;28;20052;-74
2022/09/23 07:43:38;;;;;;;1.55;1.30;;;;;;;13.58;74.20;100382.81;6323531;28;20177;-75
2022/09/23 07:46:39;;;;;;;4.53;2.35;;;;;;;13.84;73.12;100375.78;6323534;28;20081;-74
2022/09/23 07:49:40;;;;;;;2.35;1.20;;;;;;;13.87;73.89;100372.94;6323532;28;20071;-75
2022/09/23 07:52:41;;;;;;;2.67;1.58;;;;;;;13.91;71.17;100370.94;6322443;28;20048;-75
2022/09/23 07:55:42;;;;;;;2.35;1.30;;;;;;;14.05;72.00;100375.22;6303131;28;20115;-74
2022/09/23 07:58:44;;;;;;;2.83;1.20;;;;;;;14.18;71.72;100377.81;6306860;28;20047;-74
2022/09/23 08:01:51;;;;;;;;;;;;;;;13.85;71.65;100380.06;6308448;28;20044;-73
2022/09/23 08:04:53;;;;;;;1.88;1.15;;;;;;;13.88;69.18;100379.88;6316247;28;19959;-74
2022/09/23 08:07:54;;;;;;;2.17;1.52;;;;;;;13.48;71.74;100392.25;6311024;28;20527;-75
2022/09/23 08:11:03;;;;;;;2.22;1.20;;;;;;;13.26;74.49;100385.81;6312983;28;20082;-75
2022/09/23 08:14:04;;;;;;;1.23;1.10;;;;;;;13.13;73.51;100379.69;6324146;28;20044;-75
2022/09/23 08:17:05;;;;;;;1.35;1.15;;;;;;;13.20;74.17;100386.22;6324173;28;20086;-74
2022/09/23 08:20:06;;;;;;;2.03;1.40;;;;;;;13.30;75.09;100394.31;6322695;28;20048;-75
2022/09/23 08:23:07;;;;;;;4.13;1.50;;;;;;;13.08;74.37;100394.91;6322580;28;20044;-75
2022/09/23 08:26:07;;;;;;;2.25;1.50;;;;;;;13.19;74.61;100388.94;6323640;28;20449;-74
2022/09/23 08:29:12;;;;;;;2.25;1.60;;;;;;;13.22;74.68;100386.97;6322759;28;20042;-74
2022/09/23 08:32:13;;;;;;;2.35;1.60;;;;;;;13.23;76.84;100385.16;6323713;28;20143;-75
2022/09/23 08:35:13;;;;;;;3.70;2.03;;;;;;;13.03;76.25;100382.13;6305716;28;20123;-75
2022/09/23 08:38:14;;;;;;;2.03;1.45;;;;;;;13.05;78.05;100389.84;6322532;28;20043;-76
2022/09/23 08:41:42;;;;;;;2.42;1.83;;;;;;;13.35;77.00;100383.56;6309976;28;20090;-74
2022/09/23 08:44:49;;;;;;;2.10;1.48;;;;;;;13.29;75.59;100376.94;6298009;28;20048;-75
2022/09/23 08:48:05;;;;;;;1.63;1.13;;;;;;;13.66;76.38;100385.75;6297212;28;20041;-75
2022/09/23 08:51:12;;;;;;;1.52;1.10;;;;;;;13.54;74.07;100386.59;6296749;28;20062;-75
2022/09/23 08:54:17;;;;;;;1.58;1.27;;;;;;;13.65;73.27;100372.75;6298242;28;20047;-74
2022/09/23 08:57:38;;;;;;;2.47;1.30;;;;;;;13.63;70.81;100372.88;6298019;28;20037;-74
2022/09/23 09:00:42;;;;;;;1.48;1.30;;;;;;;13.78;70.04;100373.59;6296828;28;20082;-75
2022/09/23 09:03:55;;;;;;;1.83;1.40;;;;;;;14.19;70.16;100375.09;6296609;28;20093;-75
2022/09/23 09:07:12;;;;;;;4.03;2.28;;;;;;;14.55;70.05;100373.38;6299672;28;20423;-75
2022/09/23 09:10:34;;;;;;;2.20;1.50;;;;;;;14.62;66.31;100372.03;6320357;28;20068;-75
2022/09/23 09:13:52;;;;;;;1.95;1.30;;;;;;;15.18;63.93;100374.03;6284971;28;20049;-75
2022/09/23 09:16:58;;;;;;;2.67;1.83;;;;;;;15.27;65.05;100370.69;6296564;28;20044;-74
2022/09/23 09:20:05;;;;;;;3.33;2.08;;;;;;;15.56;64.43;100374.72;6296292;28;20048;-75
2022/09/23 09:23:24;;;;;;;1.50;1.35;;;;;;;15.16;63.89;100372.50;6297184;28;20037;-75
2022/09/23 09:26:31;;;;;;;1.98;1.48;;;;;;;15.07;63.54;100371.38;6296147;28;20102;-76
2022/09/23 09:29:38;;;;;;;3.80;1.83;;;;;;;15.26;66.43;100371.69;6297257;28;20040;-75
2022/09/23 09:32:47;;;;;;;5.40;1.80;;;;;;;14.81;69.15;100362.81;6295941;28;20040;-75
2022/09/23 09:36:09;;;;;;;2.35;1.58;;;;;;;15.03;66.32;100367.28;6297119;28;20074;-76
2022/09/23 09:39:12;;;;;;;1.35;1.23;;;;;;;14.64;70.78;100372.78;6296414;28;20389;-73
2022/09/23 09:42:19;;;;;;;2.53;1.20;;;;;;;14.85;70.46;100366.88;6296792;28;20044;-75
2022/09/23 09:45:26;;;;;;;2.05;1.35;;;;;;;15.11;65.84;100362.28;6295397;28;20136;-75
2022/09/23 09:48:36;;;;;;;3.53;1.67;;;;;;;15.21;67.75;100370.34;6295663;28;20496;-75
2022/09/23 09:51:41;;;;;;;4.05;1.65;;;;;;;15.03;65.50;100368.16;6296653;28;20041;-75
2022/09/23 09:54:44;;;;;;;1.67;1.33;;;;;;;14.60;66.95;100363.44;6278724;28;20041;-73
2022/09/23 09:58:07;;;;;;;3.28;1.38;;;;;;;14.72;66.99;100374.81;6296567;28;20521;-75
2022/09/23 10:01:07;;;;;;;;;;;;;;;15.05;66.63;100370.66;6297031;28;20385;-74
2022/09/23 10:04:32;;;;;;;1.20;1.10;;;;;;;14.88;68.65;100372.72;6296399;28;19974;-75
2022/09/23 10:07:33;;;;;;;2.60;1.13;;;;;;;14.96;64.12;100374.81;6295265;28;20043;-72
2022/09/23 10:10:34;;;;;;;4.60;1.70;;;;;;;14.82;65.16;100373.19;6304814;28;20037;-73
2022/09/23 10:13:36;;;;;;;1.55;1.38;;;;;;;15.00;66.67;100370.16;6293764;28;20049;-75
2022/09/23 10:16:38;;;;;;;;;;;;;;;14.79;65.48;100368.16;6294329;28;20454;-75
2022/09/23 10:19:44;;;;;;;3.83;1.55;;;;;;;14.95;65.25;100356.50;6294290;28;19921;-75
2022/09/23 10:22:46;;;;;;;1.23;1.02;;;;;;;14.80;61.30;100369.84;6295590;28;20036;-74
2022/09/23 10:25:59;;;;;;;1.83;1.25;;;;;;;14.96;66.87;100360.84;6294489;28;20040;-76
2022/09/23 10:29:22;;;;;;;1.90;1.25;;;;;;;15.21;69.27;100359.81;6328309;28;20045;-75
2022/09/23 10:32:30;;;;;;;4.32;1.33;;;;;;;15.36;64.78;100363.94;6295815;28;20095;-72
2022/09/23 10:35:33;;;;;;;1.88;1.40;;;;;;;15.10;63.44;100356.22;6294705;28;20451;-75
2022/09/23 10:38:34;;;;;;;1.13;1.02;;;;;;;15.69;62.71;100359.66;6311645;28;20102;-73
2022/09/23 10:49:11;;;;;;;3.65;1.15;;;;;;;15.04;62.59;100355.84;6298088;28;20052;-75
2022/09/23 10:52:30;;;;;;;1.50;1.02;;;;;;;15.63;63.65;100360.16;6296898;28;20450;-74
2022/09/23 10:56:12;;;;;;;1.63;1.17;;;;;;;16.47;59.74;100353.50;6299831;28;20056;-75
2022/09/23 10:59:57;;;;;;;1.63;1.00;;;;;;;15.94;58.60;100347.22;6299854;28;20473;-75
2022/09/23 11:03:23;;;;;;;1.02;0.93;;;;;;;15.11;58.84;100344.75;6302469;28;20515;-75
2022/09/23 11:06:52;;;;;;;1.10;1.00;;;;;;;15.39;57.39;100349.72;6324589;28;20055;-76
2022/09/23 11:10:09;;;;;;;10.20;1.15;;;;;;;15.81;59.68;100342.09;6324348;28;20050;-75
2022/09/23 11:13:28;;;;;;;2.65;1.33;;;;;;;15.78;57.46;100342.34;6325593;28;20122;-73
2022/09/23 11:16:47;;;;;;;1.35;0.70;;;;;;;15.86;60.06;100346.06;6300198;28;20480;-75
2022/09/23 11:20:09;;;;;;;0.88;0.80;;;;;;;15.87;57.23;100339.00;6322883;28;20043;-74
2022/09/23 11:23:45;;;;;;;1.10;0.70;;;;;;;15.99;58.50;100334.56;6325207;28;20400;-75
2022/09/23 11:27:09;;;;;;;1.23;1.05;;;;;;;15.71;57.30;100336.72;6312216;28;20044;-75
2022/09/23 11:30:13;;;;;;;2.20;1.08;;;;;;;16.00;57.39;100333.59;6313572;28;20044;-75
2022/09/23 11:33:40;;;;;;;1.45;0.88;;;;;;;16.11;55.74;100310.72;6329435;28;20063;-73
2022/09/23 11:36:50;;;;;;;0.88;0.60;;;;;;;16.53;56.20;100320.53;6298788;28;20064;-74
2022/09/23 11:39:55;;;;;;;0.60;0.60;;;;;;;17.03;53.76;100323.47;6299626;28;20047;-73
2022/09/23 11:43:06;;;;;;;1.95;0.80;;;;;;;16.55;50.61;100321.25;6299840;28;20044;-72
2022/09/23 11:46:32;;;;;;;1.13;0.80;;;;;;;16.55;53.60;100323.06;6321949;28;20564;-73
2022/09/23 11:49:44;;;;;;;0.60;0.52;;;;;;;16.91;52.55;100317.41;6324510;28;20445;-73
2022/09/23 11:52:57;;;;;;;0.60;0.60;;;;;;;17.78;50.40;100316.19;6324705;28;20043;-72
2022/09/23 11:56:11;;;;;;;0.90;0.80;;;;;;;18.26;47.40;100302.31;6318124;28;20098;-74
2022/09/23 11:59:24;;;;;;;4.82;0.63;;;;;;;18.25;45.84;100307.72;6297884;28;20040;-73
2022/09/23 12:03:02;;;;;;;0.77;0.65;;;;;;;18.51;45.35;100300.94;6314075;28;20060;-74
2022/09/23 12:06:08;;;;;;;0.40;0.40;;;;;;;19.13;45.79;100292.69;6297937;28;20473;-73
2022/09/23 12:09:18;;;;;;;0.60;0.60;;;;;;;19.09;44.42;100301.91;6297653;28;20481;-73
2022/09/23 12:12:41;;;;;;;0.60;0.60;;;;;;;19.44;45.12;100295.94;6298802;28;20041;-73
2022/09/23 12:16:00;;;;;;;0.80;0.60;;;;;;;18.96;43.77;100277.56;6313166;28;20098;-73
2022/09/23 12:19:17;;;;;;;0.77;0.57;;;;;;;18.74;42.51;100284.81;6305716;28;20048;-73
2022/09/23 12:22:30;;;;;;;0.40;0.40;;;;;;;18.41;43.67;100280.75;6323625;28;20044;-74
2022/09/23 12:25:45;;;;;;;0.55;0.50;;;;;;;18.40;43.55;100272.00;6322294;28;20044;-73
2022/09/23 12:28:49;;;;;;;0.75;0.45;;;;;;;17.85;45.86;100261.94;6323494;28;20046;-73
2022/09/23 12:31:50;;;;;;;0.65;0.65;;;;;;;17.83;45.83;100263.03;6323482;28;20058;-73
2022/09/23 12:34:52;;;;;;;0.60;0.60;;;;;;;17.28;46.30;100261.56;6339092;27;20044;-73
2022/09/23 12:37:53;;;;;;;0.68;0.57;;;;;;;17.54;47.86;100261.09;6305373;28;20131;-73
2022/09/23 12:40:55;;;;;;;2.63;0.70;;;;;;;17.60;46.85;100259.75;6304181;28;20048;-73
2022/09/23 12:44:28;;;;;;;2.20;1.00;;;;;;;17.43;48.88;100262.03;6297611;28;20416;-73
2022/09/23 12:47:35;;;;;;;0.85;0.68;;;;;;;17.13;48.61;100260.22;6296762;28;20072;-72
2022/09/23 12:50:45;;;;;;;4.28;0.90;;;;;;;17.09;48.06;100262.31;6297948;28;20044;-75
2022/09/23 12:53:54;;;;;;;0.47;0.47;;;;;;;17.14;47.75;100261.91;6297643;28;20404;-73
2022/09/23 12:56:55;;;;;;;0.55;0.52;;;;;;;17.18;48.05;100254.59;6307216;28;20060;-74
2022/09/23 13:00:02;;;;;;;0.93;0.77;;;;;;;17.15;48.87;100250.38;6293307;28;20056;-74
2022/09/23 13:06:40;;;;;;;0.95;0.80;;;;;;;16.82;51.92;100244.41;6314677;28;20127;-73
2022/09/23 13:09:45;;;;;;;1.25;0.95;;;;;;;16.79;51.19;100247.25;6298448;28;20051;-73
2022/09/23 13:12:52;;;;;;;1.00;0.85;;;;;;;16.37;52.56;100241.13;6298225;28;20553;-73
2022/09/23 13:15:53;;;;;;;1.88;0.93;;;;;;;16.14;53.73;100235.94;6304771;28;20411;-73
2022/09/23 13:18:56;;;;;;;0.65;0.65;;;;;;;16.47;53.79;100237.63;6300017;28;20064;-73
2022/09/23 13:22:07;;;;;;;1.05;0.77;;;;;;;16.73;52.58;100242.50;6311549;28;20139;-73
2022/09/23 13:25:18;;;;;;;0.80;0.80;;;;;;;16.49;51.98;100240.09;6316577;28;20037;-73
2022/09/23 13:28:40;;;;;;;1.23;0.85;;;;;;;16.58;55.06;100233.25;6307848;28;20479;-73
2022/09/23 13:57:46;;;;;;;0.98;0.82;;;;;;;16.39;52.37;100207.59;6319643;27;20408;-76
2022/09/23 14:00:50;;;;;;;1.50;0.90;;;;;;;16.83;51.88;100201.25;6318623;28;20036;-75
2022/09/23 14:03:53;;;;;;;1.10;1.00;;;;;;;17.04;50.77;100208.31;6294305;28;20062;-75
2022/09/23 14:06:55;;;;;;;1.27;0.98;;;;;;;17.12;52.21;100193.50;6311592;28;20054;-75
2022/09/23 14:09:55;;;;;;;1.75;1.10;;;;;;;17.01;49.85;100201.50;6318420;28;20605;-75
2022/09/23 14:12:58;;;;;;;0.80;0.75;;;;;;;16.87;48.95;100207.13;6317136;28;20072;-75
2022/09/23 14:16:01;;;;;;;1.83;1.30;;;;;;;17.03;49.43;100204.84;6318002;28;20136;-75
2022/09/23 14:19:03;;;;;;;1.55;1.08;;;;;;;16.72;48.85;100203.97;6333820;28;20052;-75
2022/09/23 14:22:04;;;;;;;1.08;0.88;;;;;;;16.38;51.57;100208.56;6316842;28;20063;-75
2022/09/23 14:25:13;;;;;;;1.10;1.00;;;;;;;16.17;52.67;100198.84;6316152;28;20045;-75
2022/09/23 14:28:18;;;;;;;0.82;0.80;;;;;;;15.97;52.69;100203.09;6317931;28;20044;-75
2022/09/23 14:31:18;;;;;;;2.75;1.23;;;;;;;15.91;53.61;100201.78;6315799;28;20056;-75
2022/09/23 14:34:50;;;;;;;1.38;1.00;;;;;;;15.91;54.16;100206.22;6317006;28;20518;-75
2022/09/23 14:41:20;;;;;;;1.25;1.02;;;;;;;15.86;53.49;100206.59;6317532;28;20814;-75
2022/09/23 14:44:23;;;;;;;1.40;1.13;;;;;;;15.98;54.51;100206.56;6315872;28;20036;-75
2022/09/23 14:47:32;;;;;;;2.97;1.48;;;;;;;16.09;55.67;100199.47;6316702;28;20479;-75
2022/09/23 14:50:42;;;;;;;3.13;1.60;;;;;;;16.01;55.00;100195.78;6317718;28;20036;-75
2022/09/23 14:53:47;;;;;;;2.75;1.52;;;;;;;15.81;57.81;100192.97;6316579;28;20123;-74
2022/09/23 14:56:48;;;;;;;2.80;1.45;;;;;;;15.86;56.93;100192.63;6311436;28;20049;-75
2022/09/23 14:59:59;;;;;;;3.17;1.45;;;;;;;15.58;56.79;100200.06;6299777;28;20032;-75
2022/09/23 15:03:03;;;;;;;8.67;5.03;;;;;;;15.55;57.26;100199.47;6300858;28;20055;-75
2022/09/23 15:06:08;;;;;;;4.47;1.95;;;;;;;15.20;58.07;100203.91;6300936;28;20640;-75
2022/09/23 15:09:18;;;;;;;6.55;1.85;;;;;;;14.93;61.17;100198.16;6316323;28;20048;-75
2022/09/23 15:12:21;;;;;;;7.43;4.38;;;;;;;14.87;61.03;100194.22;6299670;28;20063;-75